createdAt,value
2018-07-12T00:02:02.662Z,23.23
2018-07-12T00:04:29.914Z,27.27
2018-07-12T00:06:57.171Z,27.03
2018-07-12T00:09:24.428Z,28.50
2018-07-12T00:11:51.876Z,27.57
2018-07-12T00:14:19.413Z,23.53
2018-07-12T00:16:46.670Z,23.27
2018-07-12T00:19:14.146Z,22.97
2018-07-12T00:21:41.405Z,21.67
2018-07-12T00:24:08.650Z,22.67
2018-07-12T00:26:35.933Z,23.90
2018-07-12T00:29:05.828Z,25.57
2018-07-12T00:31:35.634Z,22.40
2018-07-12T00:34:07.709Z,25.50
2018-07-12T00:36:37.498Z,24.93
2018-07-12T00:39:05.437Z,25.43
2018-07-12T00:41:32.923Z,23.50
2018-07-12T00:44:00.163Z,24.57
2018-07-12T00:46:27.417Z,28.00
2018-07-12T00:48:54.667Z,34.03
2018-07-12T00:51:21.914Z,30.27
2018-07-12T00:53:49.242Z,32.37
2018-07-12T00:56:16.771Z,31.80
2018-07-12T00:58:44.002Z,32.67
2018-07-12T01:01:11.268Z,35.90
2018-07-12T01:03:38.797Z,32.93
2018-07-12T01:06:06.151Z,37.20
2018-07-12T01:08:33.394Z,36.77
2018-07-12T01:11:02.950Z,36.73
2018-07-12T01:13:30.210Z,36.90
2018-07-12T01:15:57.482Z,38.70
2018-07-12T01:18:24.755Z,42.60
2018-07-12T01:20:52.010Z,40.20
2018-07-12T01:23:19.262Z,39.20
2018-07-12T01:25:46.490Z,40.57
2018-07-12T01:28:14.011Z,46.43
2018-07-12T01:30:41.844Z,48.80
2018-07-12T01:33:09.909Z,47.47
2018-07-12T01:35:37.676Z,44.83
2018-07-12T01:38:05.014Z,45.03
2018-07-12T01:40:32.390Z,42.60
2018-07-12T01:43:00.242Z,37.67
2018-07-12T01:45:27.616Z,36.00
2018-07-12T01:47:57.190Z,39.80
2018-07-12T01:50:24.681Z,37.40
2018-07-12T01:52:52.153Z,41.67
2018-07-12T01:55:23.399Z,40.27
2018-07-12T01:57:54.100Z,47.20
2018-07-12T02:00:24.873Z,54.80
2018-07-12T02:02:57.612Z,53.57
2018-07-12T02:05:24.938Z,47.53
2018-07-12T02:07:52.170Z,47.43
2018-07-12T02:10:20.478Z,40.03
2018-07-12T02:12:49.219Z,47.33
2018-07-12T02:15:16.708Z,45.40
2018-07-12T02:17:43.948Z,44.97
2018-07-12T02:20:11.448Z,43.93
2018-07-12T02:25:12.790Z,46.30
2018-07-12T02:27:40.499Z,38.77
2018-07-12T02:30:08.277Z,43.13
2018-07-12T02:32:36.014Z,44.47
2018-07-12T02:35:03.407Z,48.23
2018-07-12T02:37:30.745Z,45.00
2018-07-12T02:39:57.988Z,44.37
2018-07-12T02:42:25.236Z,45.07
2018-07-12T02:44:52.760Z,45.00
2018-07-12T02:47:25.785Z,48.93
2018-07-12T02:49:53.042Z,50.53
2018-07-12T02:52:20.666Z,50.00
2018-07-12T02:54:48.526Z,57.83
2018-07-12T02:57:17.179Z,49.13
2018-07-12T02:59:44.844Z,49.23
2018-07-12T03:02:12.336Z,54.00
2018-07-12T03:04:40.246Z,58.63
2018-07-12T03:07:07.490Z,69.30
2018-07-12T03:09:36.575Z,63.93
2018-07-12T03:12:03.946Z,61.97
2018-07-12T03:14:31.565Z,69.60
2018-07-12T03:17:00.502Z,68.63
2018-07-12T03:19:27.954Z,66.80
2018-07-12T03:21:55.338Z,69.23
2018-07-12T03:24:23.277Z,59.53
2018-07-12T03:26:50.686Z,71.33
2018-07-12T03:29:18.297Z,64.10
2018-07-12T03:31:45.859Z,58.40
2018-07-12T03:34:13.148Z,65.73
2018-07-12T03:36:41.210Z,57.13
2018-07-12T03:39:08.840Z,56.33
2018-07-12T03:41:36.074Z,55.03
2018-07-12T03:44:03.346Z,51.30
2018-07-12T03:46:30.589Z,53.60
2018-07-12T03:48:58.018Z,51.00
2018-07-12T03:51:25.265Z,48.33
2018-07-12T03:53:52.492Z,54.77
2018-07-12T03:56:19.723Z,51.50
2018-07-12T03:58:48.561Z,43.23
2018-07-12T04:01:16.149Z,48.47
2018-07-12T04:03:43.716Z,53.80
2018-07-12T04:06:11.685Z,48.37
2018-07-12T04:08:39.842Z,52.70
2018-07-12T04:11:07.276Z,48.20
2018-07-12T04:13:36.644Z,44.40
2018-07-12T04:16:06.318Z,52.80
2018-07-12T04:18:33.726Z,46.50
2018-07-12T04:21:00.974Z,47.57
2018-07-12T04:23:28.409Z,43.43
2018-07-12T04:25:55.730Z,47.50
2018-07-12T04:28:22.982Z,59.33
2018-07-12T04:30:50.650Z,50.70
2018-07-12T04:33:18.039Z,43.90
2018-07-12T04:35:46.187Z,42.37
2018-07-12T04:38:13.849Z,39.47
2018-07-12T04:40:42.528Z,37.10
2018-07-12T04:43:11.850Z,38.40
2018-07-12T04:45:39.421Z,36.73
2018-07-12T04:48:06.644Z,36.37
2018-07-12T04:50:34.272Z,32.87
2018-07-12T04:53:01.836Z,27.73
2018-07-12T04:55:29.517Z,28.20
2018-07-12T04:57:56.822Z,26.80
2018-07-12T05:00:24.154Z,29.53
2018-07-12T05:02:51.386Z,24.53
2018-07-12T05:05:18.631Z,27.13
2018-07-12T05:07:46.136Z,25.60
2018-07-12T05:10:13.375Z,27.70
2018-07-12T05:12:40.616Z,29.73
2018-07-12T05:15:07.995Z,31.63
2018-07-12T05:17:35.217Z,65.50
2018-07-12T05:20:02.479Z,31.93
2018-07-12T05:22:29.877Z,23.97
2018-07-12T05:24:57.395Z,27.50
2018-07-12T05:27:25.380Z,27.33
2018-07-12T05:29:52.634Z,25.47
2018-07-12T05:32:21.084Z,25.13
2018-07-12T05:34:49.440Z,22.73
2018-07-12T05:37:18.237Z,21.93
2018-07-12T05:39:47.432Z,27.77
2018-07-12T05:42:16.123Z,22.80
2018-07-12T05:44:44.565Z,24.60
2018-07-12T05:47:13.589Z,25.40
2018-07-12T05:49:42.329Z,21.77
2018-07-12T05:52:11.144Z,24.87
2018-07-12T05:54:40.533Z,22.23
2018-07-12T05:57:09.537Z,19.83
2018-07-12T05:59:37.900Z,22.40
2018-07-12T06:02:19.944Z,23.97
2018-07-12T06:04:52.268Z,21.00
2018-07-12T06:07:26.035Z,20.67
2018-07-12T06:09:54.321Z,20.07
2018-07-12T06:12:22.593Z,16.93
2018-07-12T06:14:51.240Z,14.93
2018-07-12T06:17:19.743Z,15.57
2018-07-12T06:19:48.418Z,14.80
2018-07-12T06:22:18.470Z,16.97
2018-07-12T06:24:46.856Z,15.07
2018-07-12T06:27:15.938Z,15.10
2018-07-12T06:29:45.294Z,13.67
2018-07-12T06:32:13.699Z,12.70
2018-07-12T06:34:42.190Z,13.27
2018-07-12T06:37:10.821Z,13.97
2018-07-12T06:39:39.541Z,22.23
2018-07-12T06:42:08.116Z,23.13
2018-07-12T06:44:36.866Z,21.67
2018-07-12T06:47:05.266Z,21.97
2018-07-12T06:49:33.625Z,20.57
2018-07-12T06:52:02.010Z,22.20
2018-07-12T06:54:30.304Z,21.63
2018-07-12T06:56:59.001Z,18.20
2018-07-12T06:59:27.603Z,21.87
2018-07-12T07:01:57.121Z,19.53
2018-07-12T07:04:25.540Z,19.07
2018-07-12T07:06:53.816Z,18.37
2018-07-12T07:09:23.074Z,17.60
2018-07-12T07:11:52.520Z,14.97
2018-07-12T07:14:22.671Z,14.60
2018-07-12T07:16:52.309Z,17.10
2018-07-12T07:19:21.288Z,19.43
2018-07-12T07:21:50.882Z,17.50
2018-07-12T07:24:19.801Z,16.70
2018-07-12T07:26:48.934Z,18.80
2018-07-12T07:29:17.632Z,22.10
2018-07-12T07:31:46.794Z,21.23
2018-07-12T07:34:15.905Z,19.27
2018-07-12T07:36:44.350Z,19.10
2018-07-12T07:39:12.918Z,19.33
2018-07-12T07:41:41.182Z,18.20
2018-07-12T07:44:12.114Z,17.63
2018-07-12T07:46:41.785Z,17.37
2018-07-12T07:49:13.978Z,16.27
2018-07-12T07:51:42.666Z,19.50
2018-07-12T07:54:10.995Z,16.30
2018-07-12T07:56:39.257Z,17.37
2018-07-12T07:59:07.551Z,16.57
2018-07-12T08:01:35.830Z,16.73
2018-07-12T08:04:05.188Z,16.53
2018-07-12T08:06:33.530Z,19.83
2018-07-12T08:09:02.497Z,15.93
2018-07-12T08:11:33.801Z,14.90
2018-07-12T08:14:03.298Z,15.17
2018-07-12T08:16:32.124Z,17.10
2018-07-12T08:19:01.271Z,12.40
2018-07-12T08:21:30.288Z,11.50
2018-07-12T08:23:59.378Z,11.90
2018-07-12T08:26:28.576Z,12.60
2018-07-12T08:28:57.364Z,11.70
2018-07-12T08:31:26.099Z,11.73
2018-07-12T08:33:54.533Z,10.30
2018-07-12T08:36:23.576Z,9.73
2018-07-12T08:38:52.678Z,10.30
2018-07-12T08:41:22.205Z,11.73
2018-07-12T08:43:51.750Z,9.73
2018-07-12T08:46:20.924Z,9.37
2018-07-12T08:48:49.898Z,12.13
2018-07-12T08:51:19.134Z,10.13
2018-07-12T08:53:47.534Z,10.27
2018-07-12T08:56:17.192Z,12.83
2018-07-12T08:58:45.886Z,10.40
2018-07-12T09:01:15.194Z,10.83
2018-07-12T09:03:44.054Z,10.60
2018-07-12T09:06:14.240Z,12.83
2018-07-12T09:08:42.980Z,10.40
2018-07-12T09:11:11.842Z,10.13
2018-07-12T09:13:41.320Z,10.07
2018-07-12T09:16:10.789Z,10.23
2018-07-12T09:18:40.574Z,9.03
2018-07-12T09:21:10.102Z,10.13
2018-07-12T09:23:40.002Z,9.47
2018-07-12T09:26:10.038Z,8.00
2018-07-12T09:28:39.402Z,7.73
2018-07-12T09:31:07.979Z,7.50
2018-07-12T09:33:36.842Z,8.23
2018-07-12T09:36:05.575Z,7.27
2018-07-12T09:38:46.709Z,6.73
2018-07-12T09:41:15.491Z,7.10
2018-07-12T09:43:45.430Z,6.23
2018-07-12T09:46:14.895Z,7.93
2018-07-12T09:48:44.428Z,8.07
2018-07-12T09:51:13.953Z,6.53
2018-07-12T09:53:44.436Z,8.50
2018-07-12T09:56:14.194Z,7.90
2018-07-12T09:58:43.994Z,5.57
2018-07-12T10:01:21.845Z,4.83
2018-07-12T10:03:53.129Z,4.20
2018-07-12T10:06:26.953Z,4.40
2018-07-12T10:09:01.590Z,4.17
2018-07-12T10:11:36.291Z,4.50
2018-07-12T10:14:10.689Z,4.70
2018-07-12T10:16:58.338Z,5.40
2018-07-12T10:19:30.157Z,4.30
2018-07-12T10:22:16.839Z,5.33
2018-07-12T10:24:49.039Z,4.53
2018-07-12T10:27:18.224Z,5.20
2018-07-12T10:29:47.296Z,4.30
2018-07-12T10:32:15.708Z,4.43
2018-07-12T10:34:44.275Z,4.03
2018-07-12T10:37:13.434Z,3.60
2018-07-12T10:39:47.083Z,3.50
2018-07-12T10:42:15.982Z,3.30
2018-07-12T10:44:44.702Z,3.50
2018-07-12T10:47:15.055Z,3.67
2018-07-12T10:49:43.742Z,3.70
2018-07-12T10:52:12.877Z,4.93
2018-07-12T10:54:42.031Z,3.70
2018-07-12T10:57:12.714Z,3.67
2018-07-12T10:59:42.387Z,3.37
2018-07-12T11:02:13.619Z,3.50
2018-07-12T11:04:44.478Z,3.23
2018-07-12T11:07:15.454Z,3.00
2018-07-12T11:09:45.319Z,5.43
2018-07-12T11:12:16.203Z,4.03
2018-07-12T11:14:45.549Z,3.47
2018-07-12T11:17:15.007Z,3.47
2018-07-12T11:19:43.931Z,3.63
2018-07-12T11:22:12.584Z,3.70
2018-07-12T11:24:41.158Z,3.70
2018-07-12T11:27:10.629Z,5.30
2018-07-12T11:29:54.048Z,3.60
2018-07-12T11:32:26.149Z,3.70
2018-07-12T11:34:54.916Z,3.70
2018-07-12T11:37:26.876Z,3.67
2018-07-12T11:39:55.438Z,4.33
2018-07-12T11:42:24.226Z,3.53
2018-07-12T11:44:52.949Z,3.77
2018-07-12T11:47:21.922Z,3.60
2018-07-12T11:49:51.345Z,3.30
2018-07-12T11:52:20.142Z,3.07
2018-07-12T11:54:58.446Z,4.00
2018-07-12T11:57:27.077Z,3.90
2018-07-12T11:59:55.708Z,3.10
2018-07-12T12:02:27.092Z,3.20
2018-07-12T12:04:56.125Z,3.07
2018-07-12T12:07:25.106Z,6.00
2018-07-12T12:10:07.662Z,3.10
2018-07-12T12:12:36.552Z,3.00
2018-07-12T12:15:05.718Z,3.20
2018-07-12T12:17:34.734Z,4.80
2018-07-12T12:20:03.895Z,4.97
2018-07-12T12:22:33.377Z,3.00
2018-07-12T12:25:02.729Z,3.30
2018-07-12T12:27:33.598Z,4.57
2018-07-12T12:30:03.167Z,3.20
2018-07-12T12:32:40.255Z,3.87
2018-07-12T12:35:09.049Z,3.20
2018-07-12T12:37:37.654Z,3.07
2018-07-12T12:40:06.095Z,4.63
2018-07-12T12:42:57.290Z,4.10
2018-07-12T12:45:25.822Z,5.23
2018-07-12T12:47:54.358Z,3.00
2018-07-12T12:50:26.330Z,3.47
2018-07-12T12:52:55.020Z,3.20
2018-07-12T12:55:23.842Z,3.47
2018-07-12T12:57:53.840Z,2.83
2018-07-12T13:00:23.576Z,3.87
2018-07-12T13:02:52.613Z,2.80
2018-07-12T13:05:21.090Z,3.97
2018-07-12T13:07:50.390Z,2.80
2018-07-12T13:10:30.331Z,5.00
2018-07-12T13:15:39.012Z,4.10
2018-07-12T13:18:08.517Z,4.90
2018-07-12T13:20:39.121Z,3.07
2018-07-12T13:23:07.462Z,4.33
2018-07-12T13:25:37.101Z,7.10
2018-07-12T13:28:05.497Z,3.03
2018-07-12T13:30:34.166Z,3.93
2018-07-12T13:33:03.155Z,3.13
2018-07-12T13:35:32.090Z,2.83
2018-07-12T13:38:01.034Z,6.13
2018-07-12T13:40:31.754Z,2.87
2018-07-12T13:43:02.072Z,3.07
2018-07-12T13:45:30.795Z,3.30
2018-07-12T13:48:00.106Z,4.07
2018-07-12T13:50:31.358Z,3.43
2018-07-12T13:53:00.468Z,2.90
2018-07-12T13:55:28.805Z,2.90
2018-07-12T13:57:57.085Z,2.80
2018-07-12T14:00:37.170Z,3.30
2018-07-12T14:03:05.665Z,4.37
2018-07-12T14:05:34.010Z,3.13
2018-07-12T14:08:02.257Z,3.80
2018-07-12T14:10:30.522Z,4.27
2018-07-12T14:12:58.772Z,3.30
2018-07-12T14:15:27.042Z,3.33
2018-07-12T14:17:55.502Z,3.47
2018-07-12T14:20:23.885Z,3.37
2018-07-12T14:22:52.147Z,4.20
2018-07-12T14:25:20.447Z,3.80
2018-07-12T14:27:51.938Z,3.43
2018-07-12T14:30:21.982Z,3.27
2018-07-12T14:32:52.041Z,3.73
2018-07-12T14:35:20.310Z,3.07
2018-07-12T14:37:48.572Z,3.53
2018-07-12T14:40:17.188Z,4.17
2018-07-12T14:42:46.057Z,3.57
2018-07-12T14:45:14.855Z,3.60
2018-07-12T14:47:43.616Z,3.40
2018-07-12T14:50:13.750Z,4.83
2018-07-12T14:52:42.651Z,3.17
2018-07-12T14:55:14.182Z,4.70
2018-07-12T14:57:45.018Z,2.90
2018-07-12T15:00:14.317Z,3.70
2018-07-12T15:02:43.643Z,3.33
2018-07-12T15:05:12.977Z,6.03
2018-07-12T15:07:42.029Z,3.30
2018-07-12T15:10:11.271Z,3.50
2018-07-12T15:12:40.515Z,3.87
2018-07-12T15:15:10.727Z,3.60
2018-07-12T15:17:40.067Z,3.57
2018-07-12T15:20:09.892Z,4.20
2018-07-12T15:22:38.647Z,3.30
2018-07-12T15:25:07.514Z,3.40
2018-07-12T15:27:36.935Z,3.60
2018-07-12T15:30:05.531Z,3.30
2018-07-12T15:32:34.116Z,5.80
2018-07-12T15:35:03.254Z,3.40
2018-07-12T15:40:06.697Z,4.03
2018-07-12T15:42:35.109Z,3.60
2018-07-12T15:45:04.121Z,3.27
2018-07-12T15:47:32.808Z,3.57
2018-07-12T15:50:02.005Z,3.67
2018-07-12T15:52:32.429Z,3.37
2018-07-12T15:55:01.258Z,5.57
2018-07-12T15:57:33.918Z,7.43
2018-07-12T16:00:02.361Z,3.50
2018-07-12T16:02:30.659Z,4.27
2018-07-12T16:04:59.853Z,5.63
2018-07-12T16:07:28.589Z,5.70
2018-07-12T16:09:57.499Z,3.80
2018-07-12T16:12:25.745Z,4.80
2018-07-12T16:14:55.206Z,5.70
2018-07-12T16:17:24.335Z,4.43
2018-07-12T16:19:52.673Z,5.33
2018-07-12T16:22:28.058Z,4.60
2018-07-12T16:24:56.270Z,5.97
2018-07-12T16:27:24.550Z,3.63
2018-07-12T16:29:52.954Z,4.07
2018-07-12T16:32:21.146Z,4.03
2018-07-12T16:34:52.617Z,4.27
2018-07-12T16:37:24.903Z,3.67
2018-07-12T16:39:56.200Z,4.33
2018-07-12T16:42:28.541Z,3.33
2018-07-12T16:45:07.647Z,3.67
2018-07-12T16:47:36.402Z,3.83
2018-07-12T16:50:08.389Z,3.47
2018-07-12T16:52:40.187Z,4.37
2018-07-12T16:55:12.931Z,4.37
2018-07-12T16:57:44.849Z,3.60
2018-07-12T17:00:20.807Z,3.83
2018-07-12T17:02:53.798Z,5.47
2018-07-12T17:05:26.310Z,3.40
2018-07-12T17:07:58.993Z,5.30
2018-07-12T17:10:27.522Z,3.83
2018-07-12T17:13:00.974Z,6.10
2018-07-12T17:15:29.355Z,3.77
2018-07-12T17:18:00.206Z,3.80
2018-07-12T17:20:29.488Z,5.43
2018-07-12T17:22:58.197Z,5.37
2018-07-12T17:25:27.730Z,4.43
2018-07-12T17:27:58.828Z,3.80
2018-07-12T17:30:29.585Z,4.10
2018-07-12T17:32:59.002Z,5.60
2018-07-12T17:35:29.931Z,5.87
2018-07-12T17:38:02.027Z,4.70
2018-07-12T17:40:30.463Z,4.33
2018-07-12T17:42:59.041Z,4.40
2018-07-12T17:45:27.426Z,6.70
2018-07-12T17:48:01.036Z,4.53
2018-07-12T17:50:32.877Z,5.67
2018-07-12T17:53:04.413Z,5.73
2018-07-12T17:55:35.102Z,4.57
2018-07-12T17:58:06.847Z,4.43
2018-07-12T18:00:35.324Z,4.37
2018-07-12T18:03:04.122Z,6.60
2018-07-12T18:05:33.237Z,4.97
2018-07-12T18:08:05.539Z,5.40
2018-07-12T18:10:37.679Z,5.30
2018-07-12T18:13:10.287Z,6.07
2018-07-12T18:15:38.834Z,5.50
2018-07-12T18:18:09.302Z,5.57
2018-07-12T18:20:42.197Z,6.77
2018-07-12T18:23:14.268Z,5.83
2018-07-12T18:25:45.939Z,5.63
2018-07-12T18:28:18.371Z,5.23
2018-07-12T18:30:47.175Z,6.43
2018-07-12T18:33:19.208Z,6.07
2018-07-12T18:35:47.672Z,5.43
2018-07-12T18:38:16.455Z,5.77
2018-07-12T18:40:48.255Z,7.47
2018-07-12T18:43:19.078Z,6.50
2018-07-12T18:45:47.497Z,6.50
2018-07-12T18:48:18.914Z,6.37
2018-07-12T18:50:47.361Z,10.00
2018-07-12T18:53:15.666Z,8.23
2018-07-12T18:55:43.967Z,7.83
2018-07-12T18:58:12.877Z,10.03
2018-07-12T19:00:45.931Z,7.60
2018-07-12T19:03:15.456Z,6.80
2018-07-12T19:05:48.806Z,6.70
2018-07-12T19:08:17.581Z,7.07
2018-07-12T19:10:50.137Z,6.83
2018-07-12T19:13:19.583Z,10.17
2018-07-12T19:15:52.267Z,7.73
2018-07-12T19:18:22.630Z,7.10
2018-07-12T19:20:51.551Z,9.00
2018-07-12T19:23:20.739Z,7.23
2018-07-12T19:25:49.418Z,8.13
2018-07-12T19:28:19.298Z,7.97
2018-07-12T19:30:50.119Z,8.80
2018-07-12T19:33:21.955Z,8.50
2018-07-12T19:35:51.768Z,7.80
2018-07-12T19:38:20.286Z,10.37
2018-07-12T19:40:49.463Z,8.63
2018-07-12T19:43:18.323Z,8.10
2018-07-12T19:45:46.883Z,8.10
2018-07-12T19:48:15.235Z,9.57
2018-07-12T19:50:45.383Z,8.40
2018-07-12T19:53:14.485Z,8.90
2018-07-12T19:55:46.836Z,8.50
2018-07-12T19:58:15.896Z,8.13
2018-07-12T20:00:48.221Z,12.73
2018-07-12T20:03:16.579Z,9.27
2018-07-12T20:05:45.396Z,9.00
2018-07-12T20:08:14.975Z,8.70
2018-07-12T20:10:43.363Z,10.57
2018-07-12T20:13:11.726Z,11.20
2018-07-12T20:15:40.136Z,9.37
2018-07-12T20:18:08.529Z,8.63
2018-07-12T20:20:36.968Z,9.50
2018-07-12T20:23:06.606Z,8.53
2018-07-12T20:25:34.909Z,9.37
2018-07-12T20:28:06.301Z,8.40
2018-07-12T20:30:35.019Z,8.60
2018-07-12T20:33:03.856Z,9.00
2018-07-12T20:35:32.094Z,9.70
2018-07-12T20:38:02.070Z,9.73
2018-07-12T20:40:34.125Z,9.77
2018-07-12T20:43:03.746Z,12.53
2018-07-12T20:45:32.147Z,13.43
2018-07-12T20:48:00.760Z,11.13
2018-07-12T20:50:32.807Z,12.90
2018-07-12T20:53:01.185Z,9.87
2018-07-12T20:55:31.812Z,10.50
2018-07-12T20:58:02.790Z,11.30
2018-07-12T21:00:37.089Z,9.60
2018-07-12T21:03:07.442Z,10.50
2018-07-12T21:05:38.591Z,10.03
2018-07-12T21:08:06.941Z,13.30
2018-07-12T21:10:36.182Z,13.67
2018-07-12T21:13:08.213Z,10.37
2018-07-12T21:15:36.950Z,11.33
2018-07-12T21:18:08.505Z,11.47
2018-07-12T21:20:37.360Z,12.13
2018-07-12T21:23:06.622Z,10.60
2018-07-12T21:25:35.310Z,11.30
2018-07-12T21:28:07.394Z,10.83
2018-07-12T21:30:35.753Z,10.70
2018-07-12T21:33:07.331Z,10.60
2018-07-12T21:35:36.400Z,10.17
2018-07-12T21:38:04.951Z,10.33
2018-07-12T21:40:33.668Z,12.60
2018-07-12T21:43:02.554Z,12.77
2018-07-12T21:45:32.757Z,12.80
2018-07-12T21:48:03.427Z,12.47
2018-07-12T21:50:33.463Z,13.23
2018-07-12T21:53:03.447Z,12.83
2018-07-12T21:55:34.854Z,13.70
2018-07-12T21:58:06.718Z,12.07
2018-07-12T22:00:38.299Z,12.10
2018-07-12T22:03:06.965Z,12.23
2018-07-12T22:05:35.881Z,14.50
2018-07-12T22:08:14.085Z,12.13
2018-07-12T22:10:46.561Z,12.63
2018-07-12T22:13:15.492Z,13.03
2018-07-12T22:15:46.558Z,12.00
2018-07-12T22:18:15.155Z,13.07
2018-07-12T22:20:47.000Z,13.30
2018-07-12T22:23:16.725Z,12.97
2018-07-12T22:25:49.082Z,13.47
2018-07-12T22:28:18.191Z,13.40
2018-07-12T22:30:48.133Z,11.57
2018-07-12T22:33:20.013Z,11.37
2018-07-12T22:35:48.437Z,16.33
2018-07-12T22:38:18.940Z,12.33
2018-07-12T22:40:50.267Z,12.83
2018-07-12T22:43:23.087Z,14.53
2018-07-12T22:45:54.229Z,11.70
2018-07-12T22:48:25.965Z,10.83
2018-07-12T22:50:57.297Z,10.63
2018-07-12T22:53:27.576Z,10.33
2018-07-12T22:55:58.073Z,10.63
2018-07-12T22:58:28.532Z,10.20
2018-07-12T23:00:59.848Z,10.87
2018-07-12T23:03:28.224Z,11.00
2018-07-12T23:05:56.371Z,10.67
2018-07-12T23:08:28.082Z,11.03
2018-07-12T23:10:56.386Z,10.20
2018-07-12T23:13:24.662Z,10.57
2018-07-12T23:15:52.930Z,10.37
2018-07-12T23:18:22.238Z,10.20
2018-07-12T23:20:50.513Z,10.10
2018-07-12T23:23:18.874Z,9.90
2018-07-12T23:25:47.127Z,9.73
2018-07-12T23:28:20.522Z,11.40
2018-07-12T23:30:48.788Z,10.23
2018-07-12T23:33:17.102Z,10.07
2018-07-12T23:35:45.696Z,10.43
2018-07-12T23:38:16.900Z,10.53
2018-07-12T23:40:46.002Z,10.93
2018-07-12T23:43:14.594Z,11.93
2018-07-12T23:45:42.871Z,10.93
2018-07-12T23:48:11.152Z,10.70
2018-07-12T23:50:40.871Z,9.23
2018-07-12T23:53:09.580Z,10.73
2018-07-12T23:55:37.877Z,10.10
2018-07-12T23:58:09.318Z,10.20
